Time;durP1;ratioP1;P1;durP2;ratioP2;P2;SDS_P1;SDS_P2;PMS_P1;PMS_P2;Temp;Humidity;BMP_temperature;BMP_pressure;BME280_temperature;BME280_humidity;BME280_pressure;Samples;Min_cycle;Max_cycle;Signal;HPM_P1;HPM_P2
2020/12/03 00:01:13;;;;;;;47.70;20.45;;;1.60;88.70;;;;;;5053393;28;20540;-72
2020/12/03 00:04:05;;;;;;;45.42;19.35;;;1.60;88.80;;;;;;5055260;28;20047;-72
2020/12/03 00:06:35;;;;;;;34.13;16.25;;;1.60;88.90;;;;;;5051132;28;20033;-72
2020/12/03 00:09:06;;;;;;;40.25;17.80;;;1.60;89.00;;;;;;5053267;28;20074;-72
2020/12/03 00:11:34;;;;;;;43.38;19.95;;;1.60;88.90;;;;;;5054510;28;20031;-72
2020/12/03 00:14:00;;;;;;;39.35;19.40;;;1.60;89.00;;;;;;5054416;28;20110;-72
2020/12/03 00:16:33;;;;;;;42.30;19.48;;;1.50;89.10;;;;;;5052795;28;20084;-72
2020/12/03 00:19:00;;;;;;;42.58;18.85;;;1.60;89.20;;;;;;5054282;28;20036;-72
2020/12/03 00:21:50;;;;;;;44.80;20.58;;;1.60;89.20;;;;;;5053242;28;20025;-72
2020/12/03 00:24:25;;;;;;;44.85;18.95;;;1.60;89.10;;;;;;5053184;28;20043;-72
2020/12/03 00:26:51;;;;;;;38.13;17.98;;;1.60;89.10;;;;;;5052980;28;20029;-72
2020/12/03 00:29:18;;;;;;;49.28;20.60;;;1.50;88.90;;;;;;5053127;28;20079;-72
2020/12/03 00:31:45;;;;;;;46.95;20.60;;;1.60;88.90;;;;;;5054142;28;20029;-72
2020/12/03 00:34:11;;;;;;;41.15;20.13;;;1.60;89.10;;;;;;5052902;28;20033;-72
2020/12/03 00:36:38;;;;;;;51.40;24.27;;;1.60;88.80;;;;;;5052861;28;20375;-72
2020/12/03 00:39:12;;;;;;;52.35;25.45;;;1.60;88.90;;;;;;5053969;28;20053;-73
2020/12/03 00:41:38;;;;;;;41.67;21.50;;;1.50;89.00;;;;;;5054279;28;20358;-73
2020/12/03 00:44:04;;;;;;;41.15;19.20;;;1.60;89.20;;;;;;5053922;28;20037;-74
2020/12/03 00:46:34;;;;;;;39.17;18.88;;;1.60;89.20;;;;;;5054493;28;20025;-72
2020/12/03 00:49:01;;;;;;;34.83;17.13;;;1.60;89.00;;;;;;5053753;28;20025;-73
2020/12/03 00:51:26;;;;;;;36.53;17.23;;;1.50;88.80;;;;;;5053872;28;20029;-73
2020/12/03 00:53:52;;;;;;;39.45;18.85;;;1.50;88.90;;;;;;5052191;28;20474;-73
2020/12/03 00:56:19;;;;;;;38.40;17.98;;;1.50;89.10;;;;;;5052541;28;20074;-73
2020/12/03 00:58:48;;;;;;;36.83;17.38;;;1.60;89.10;;;;;;5053912;28;20087;-73
2020/12/03 01:01:19;;;;;;;42.85;17.52;;;1.60;89.00;;;;;;5053618;28;20068;-73
2020/12/03 01:03:45;;;;;;;55.35;19.27;;;1.60;88.80;;;;;;5052377;28;20467;-73
2020/12/03 01:06:11;;;;;;;40.80;16.83;;;1.50;88.60;;;;;;5052102;28;20108;-74
2020/12/03 01:08:37;;;;;;;47.08;19.02;;;1.50;88.60;;;;;;5052172;28;20140;-74
2020/12/03 01:11:04;;;;;;;39.13;18.00;;;1.50;88.50;;;;;;5053512;28;20478;-74
2020/12/03 01:13:31;;;;;;;43.53;19.73;;;1.40;88.50;;;;;;5053919;28;20033;-76
2020/12/03 01:15:56;;;;;;;41.58;18.35;;;1.40;88.60;;;;;;5053719;28;20516;-74
2020/12/03 01:18:23;;;;;;;35.83;17.45;;;1.40;88.60;;;;;;5053563;28;20065;-74
2020/12/03 01:20:49;;;;;;;48.08;18.80;;;1.40;88.60;;;;;;5053514;28;20144;-74
2020/12/03 01:23:14;;;;;;;50.10;19.27;;;1.40;88.60;;;;;;5053758;28;20100;-74
2020/12/03 01:25:40;;;;;;;38.47;15.80;;;1.40;88.70;;;;;;5053631;28;20036;-73
2020/12/03 01:28:06;;;;;;;40.25;17.30;;;1.40;88.70;;;;;;5052192;28;20021;-74
2020/12/03 01:30:32;;;;;;;35.88;16.20;;;1.40;88.60;;;;;;5053356;28;20037;-73
2020/12/03 01:32:57;;;;;;;53.85;22.50;;;1.40;88.60;;;;;;5053439;28;20025;-74
2020/12/03 01:35:23;;;;;;;39.28;17.13;;;1.30;88.60;;;;;;5057301;28;20033;-74
2020/12/03 01:37:50;;;;;;;34.33;16.63;;;1.30;88.60;;;;;;5056369;28;20029;-74
2020/12/03 01:40:20;;;;;;;37.67;17.75;;;1.30;88.60;;;;;;5056005;28;20027;-73
2020/12/03 01:42:46;;;;;;;32.35;15.90;;;1.30;88.60;;;;;;5057514;28;20107;-73
2020/12/03 01:45:49;;;;;;;37.42;17.90;;;1.30;88.60;;;;;;5057299;28;20128;-73
2020/12/03 01:48:34;;;;;;;37.05;17.45;;;1.30;88.70;;;;;;5057136;28;20063;-74
2020/12/03 01:51:02;;;;;;;43.10;19.08;;;1.30;88.70;;;;;;5057164;28;20021;-74
2020/12/03 01:53:28;;;;;;;35.38;17.90;;;1.30;88.60;;;;;;5055763;28;20467;-74
2020/12/03 01:55:54;;;;;;;35.50;17.30;;;1.30;88.60;;;;;;5057066;28;20187;-74
2020/12/03 01:58:40;;;;;;;43.72;17.50;;;1.30;88.60;;;;;;5056989;28;20056;-74
2020/12/03 02:01:06;;;;;;;36.88;19.02;;;1.20;88.50;;;;;;5057209;28;20053;-74
2020/12/03 02:03:32;;;;;;;33.88;17.75;;;1.20;88.60;;;;;;5057023;28;20044;-74
2020/12/03 02:05:58;;;;;;;38.63;19.23;;;1.20;88.60;;;;;;5056616;28;20041;-74
2020/12/03 02:08:24;;;;;;;43.20;19.40;;;1.20;88.60;;;;;;5056797;28;20021;-73
2020/12/03 02:10:50;;;;;;;37.90;17.85;;;1.20;88.70;;;;;;5056704;28;20039;-73
2020/12/03 02:13:16;;;;;;;37.72;18.85;;;1.20;88.90;;;;;;5055785;28;20108;-74
2020/12/03 02:15:42;;;;;;;43.85;18.65;;;1.20;88.70;;;;;;5055760;28;20052;-73
2020/12/03 02:18:09;;;;;;;43.97;20.13;;;1.20;88.80;;;;;;5056608;28;20056;-74
2020/12/03 02:20:34;;;;;;;42.80;18.67;;;1.30;89.00;;;;;;5055925;28;20021;-73
2020/12/03 02:23:07;;;;;;;39.33;18.92;;;1.20;88.70;;;;;;5056662;28;20028;-73
2020/12/03 02:25:33;;;;;;;43.75;19.63;;;1.20;88.70;;;;;;5056775;28;20033;-73
2020/12/03 02:27:59;;;;;;;41.30;18.48;;;1.20;88.70;;;;;;5055238;28;20025;-73
2020/12/03 02:30:24;;;;;;;43.97;19.27;;;1.20;88.60;;;;;;5055954;28;20021;-73
2020/12/03 02:32:50;;;;;;;44.00;20.40;;;1.20;88.60;;;;;;5057551;28;20379;-73
2020/12/03 02:35:16;;;;;;;46.78;21.70;;;1.20;88.80;;;;;;5056497;28;20025;-74
2020/12/03 02:37:41;;;;;;;47.33;20.08;;;1.20;88.90;;;;;;5054989;28;20029;-73
2020/12/03 02:40:07;;;;;;;47.00;21.95;;;1.20;88.90;;;;;;5054916;28;20043;-74
2020/12/03 02:42:33;;;;;;;42.97;20.27;;;1.20;88.80;;;;;;5055970;28;20471;-74
2020/12/03 02:44:59;;;;;;;53.45;21.52;;;1.30;88.90;;;;;;5054909;28;20044;-74
2020/12/03 02:47:25;;;;;;;56.65;23.45;;;1.20;88.60;;;;;;5055957;28;20025;-74
2020/12/03 02:49:52;;;;;;;52.05;22.65;;;1.30;88.90;;;;;;5056210;28;20111;-74
2020/12/03 02:52:21;;;;;;;62.72;26.02;;;1.20;89.00;;;;;;5056045;28;20070;-74
2020/12/03 02:54:47;;;;;;;53.08;22.92;;;1.20;89.00;;;;;;5054380;28;20060;-73
2020/12/03 02:57:13;;;;;;;67.30;27.23;;;1.20;89.00;;;;;;5054647;28;20032;-73
2020/12/03 02:59:39;;;;;;;53.97;24.27;;;1.20;89.10;;;;;;5054514;28;20025;-73
2020/12/03 03:02:05;;;;;;;55.28;24.10;;;1.30;89.10;;;;;;5054439;28;20057;-73
2020/12/03 03:04:31;;;;;;;52.28;23.38;;;1.20;89.00;;;;;;5055789;28;20518;-73
2020/12/03 03:06:57;;;;;;;54.08;23.15;;;1.30;89.00;;;;;;5055688;28;20032;-73
2020/12/03 03:09:23;;;;;;;52.20;22.65;;;1.30;89.00;;;;;;5055701;28;20029;-72
2020/12/03 03:11:49;;;;;;;55.95;23.70;;;1.30;88.90;;;;;;5055573;28;20131;-73
2020/12/03 03:14:15;;;;;;;55.03;22.95;;;1.20;88.80;;;;;;5055583;28;20437;-73
2020/12/03 03:16:41;;;;;;;57.80;24.73;;;1.20;88.70;;;;;;5054261;28;20025;-73
2020/12/03 03:19:06;;;;;;;55.78;23.60;;;1.20;88.80;;;;;;5055415;28;20102;-73
2020/12/03 03:21:32;;;;;;;55.65;24.35;;;1.20;88.90;;;;;;5054124;28;20120;-74
2020/12/03 03:23:58;;;;;;;58.88;25.45;;;1.20;88.90;;;;;;5053987;28;20025;-73
2020/12/03 03:26:24;;;;;;;58.25;25.10;;;1.20;88.80;;;;;;5055383;28;20032;-73
2020/12/03 03:28:50;;;;;;;65.97;26.52;;;1.20;88.80;;;;;;5055110;28;20025;-73
2020/12/03 03:31:18;;;;;;;73.80;28.98;;;1.20;89.00;;;;;;5055571;28;20056;-73
2020/12/03 03:33:44;;;;;;;68.03;28.05;;;1.20;89.10;;;;;;5053894;28;20025;-74
2020/12/03 03:36:09;;;;;;;68.60;26.23;;;1.10;88.90;;;;;;5055109;28;20023;-74
2020/12/03 03:38:36;;;;;;;65.53;26.83;;;1.10;88.80;;;;;;5054830;28;20037;-73
2020/12/03 03:41:02;;;;;;;61.63;23.80;;;1.10;89.00;;;;;;5055698;28;20115;-74
2020/12/03 03:43:28;;;;;;;64.63;26.45;;;1.10;89.10;;;;;;5053766;28;20044;-74
2020/12/03 03:45:54;;;;;;;68.07;25.30;;;1.10;89.20;;;;;;5054830;28;20041;-74
2020/12/03 03:48:20;;;;;;;65.75;26.70;;;1.20;89.40;;;;;;5055256;28;20071;-74
2020/12/03 03:50:45;;;;;;;64.03;26.10;;;1.20;89.40;;;;;;5054801;28;20067;-74
2020/12/03 03:53:11;;;;;;;65.15;25.48;;;1.20;89.50;;;;;;5055082;28;20081;-74
2020/12/03 03:55:37;;;;;;;57.22;23.77;;;1.20;89.40;;;;;;5053596;28;20171;-74
2020/12/03 03:58:07;;;;;;;68.22;26.45;;;1.20;89.30;;;;;;5054611;28;20036;-74
2020/12/03 04:00:40;;;;;;;66.25;28.88;;;1.20;89.30;;;;;;5054551;28;20439;-74
2020/12/03 04:03:13;;;;;;;66.75;27.55;;;1.10;89.30;;;;;;5053404;28;20025;-74
2020/12/03 04:05:40;;;;;;;60.38;27.33;;;1.10;89.30;;;;;;5054469;28;20040;-74
2020/12/03 04:08:06;;;;;;;67.15;26.33;;;1.10;89.20;;;;;;5054402;28;20035;-74
2020/12/03 04:10:32;;;;;;;58.67;26.40;;;1.10;89.30;;;;;;5054524;28;20029;-74
2020/12/03 04:12:58;;;;;;;61.33;26.38;;;1.10;89.30;;;;;;5054533;28;20032;-74
2020/12/03 04:15:24;;;;;;;72.00;28.05;;;1.10;89.20;;;;;;5053148;28;20050;-73
2020/12/03 04:17:50;;;;;;;76.40;28.67;;;1.10;89.60;;;;;;5053326;28;20025;-74
2020/12/03 04:20:16;;;;;;;66.70;27.42;;;1.10;89.70;;;;;;5055716;28;20021;-74
2020/12/03 04:22:44;;;;;;;61.88;28.08;;;1.10;89.70;;;;;;5054783;28;20039;-74
2020/12/03 04:25:11;;;;;;;73.45;29.88;;;1.10;89.50;;;;;;5054116;28;20055;-74
2020/12/03 04:27:37;;;;;;;67.07;26.55;;;1.10;89.40;;;;;;5054062;28;20112;-74
2020/12/03 04:30:05;;;;;;;71.03;29.88;;;1.10;89.50;;;;;;5054842;28;20052;-73
2020/12/03 04:32:31;;;;;;;66.00;25.13;;;1.10;89.80;;;;;;5053962;28;20139;-73
2020/12/03 04:34:57;;;;;;;64.43;27.83;;;1.10;89.70;;;;;;5054238;28;20029;-73
2020/12/03 04:37:22;;;;;;;63.17;26.10;;;1.10;89.60;;;;;;5053845;28;20021;-73
2020/12/03 04:39:48;;;;;;;64.45;26.30;;;1.10;89.80;;;;;;5053964;28;20036;-74
2020/12/03 04:42:26;;;;;;;72.75;28.27;;;1.20;89.90;;;;;;5052644;28;20084;-75
2020/12/03 04:44:56;;;;;;;54.60;23.33;;;1.20;89.90;;;;;;5053592;28;20037;-74
2020/12/03 04:47:41;;;;;;;64.60;26.42;;;1.20;89.80;;;;;;5052851;28;20025;-74
2020/12/03 04:50:11;;;;;;;67.68;27.45;;;1.20;89.70;;;;;;5053769;28;20029;-74
2020/12/03 04:52:53;;;;;;;81.65;32.28;;;1.20;89.70;;;;;;5053558;28;20479;-73
2020/12/03 04:55:31;;;;;;;58.03;25.33;;;1.20;89.70;;;;;;5052497;28;20028;-76
2020/12/03 04:58:35;;;;;;;70.10;25.92;;;1.20;89.50;;;;;;5053819;28;20029;-75
2020/12/03 05:01:26;;;;;;;61.78;24.27;;;1.20;89.40;;;;;;5053367;28;20056;-74
2020/12/03 05:04:13;;;;;;;74.32;28.08;;;1.20;89.60;;;;;;5042591;28;20041;-74
2020/12/03 05:06:44;;;;;;;89.00;31.85;;;1.20;89.60;;;;;;5053607;28;20029;-73
2020/12/03 05:09:22;;;;;;;87.72;33.20;;;1.20;89.70;;;;;;5052899;28;20025;-79
2020/12/03 05:11:56;;;;;;;84.05;31.42;;;1.20;89.70;;;;;;5052142;28;20059;-73
2020/12/03 05:14:35;;;;;;;62.75;25.73;;;1.20;89.60;;;;;;5052326;28;20039;-74
2020/12/03 05:17:16;;;;;;;71.45;25.77;;;1.10;89.40;;;;;;5053420;28;20036;-74
2020/12/03 05:19:54;;;;;;;58.85;23.67;;;1.10;89.50;;;;;;5053579;28;20029;-74
2020/12/03 05:22:22;;;;;;;68.93;25.42;;;1.10;89.50;;;;;;5053549;28;20378;-74
2020/12/03 05:24:48;;;;;;;79.38;27.20;;;1.10;89.30;;;;;;5052219;28;20071;-73
2020/12/03 05:27:29;;;;;;;68.28;26.80;;;1.10;89.40;;;;;;5053531;28;20485;-74
2020/12/03 05:29:56;;;;;;;78.32;28.75;;;1.10;89.30;;;;;;5051449;28;20017;-73
2020/12/03 05:32:22;;;;;;;99.38;36.70;;;1.10;89.50;;;;;;5050102;28;20519;-74
2020/12/03 05:34:49;;;;;;;63.50;26.40;;;1.10;89.90;;;;;;5052829;28;20090;-75
2020/12/03 05:37:17;;;;;;;81.32;27.60;;;1.10;89.80;;;;;;5052002;28;20075;-73
2020/12/03 05:39:49;;;;;;;97.20;32.10;;;1.20;89.70;;;;;;5053237;28;20075;-73
2020/12/03 05:42:25;;;;;;;65.00;25.52;;;1.20;89.80;;;;;;5052014;28;20029;-73
2020/12/03 05:44:57;;;;;;;176.75;53.17;;;1.20;89.80;;;;;;5051953;28;20049;-73
2020/12/03 05:47:32;;;;;;;252.63;74.28;;;1.20;89.60;;;;;;5052944;28;20083;-74
2020/12/03 05:50:07;;;;;;;215.40;66.53;;;1.10;89.40;;;;;;5053486;28;20036;-74
2020/12/03 05:52:33;;;;;;;187.25;59.75;;;1.20;89.80;;;;;;5051160;28;20057;-74
2020/12/03 05:55:24;;;;;;;192.50;62.13;;;1.20;90.00;;;;;;5051389;28;20079;-73
2020/12/03 05:57:50;;;;;;;101.28;39.97;;;1.20;90.00;;;;;;5052911;28;20029;-75
2020/12/03 06:00:21;;;;;;;173.07;59.03;;;1.30;90.00;;;;;;5051746;28;20021;-74
2020/12/03 06:03:27;;;;;;;77.57;30.30;;;1.30;90.00;;;;;;5051804;28;20102;-74
2020/12/03 06:06:25;;;;;;;77.80;29.40;;;1.30;89.80;;;;;;5051246;28;20037;-75
2020/12/03 06:09:05;;;;;;;82.68;31.27;;;1.30;89.60;;;;;;5051993;28;20029;-74
2020/12/03 06:11:34;;;;;;;94.30;35.60;;;1.30;89.60;;;;;;5053146;28;20025;-72
2020/12/03 06:14:45;;;;;;;147.07;45.47;;;1.30;89.70;;;;;;5052932;28;20025;-74
2020/12/03 06:17:27;;;;;;;176.80;59.00;;;1.30;89.80;;;;;;5050656;28;20124;-74
2020/12/03 06:20:20;;;;;;;105.60;36.63;;;1.30;89.80;;;;;;5041001;28;20426;-74
2020/12/03 06:23:04;;;;;;;125.88;47.03;;;1.30;89.70;;;;;;5048387;28;20108;-77
2020/12/03 06:25:51;;;;;;;96.47;35.00;;;1.30;89.60;;;;;;5044860;28;20037;-77
2020/12/03 06:28:31;;;;;;;112.25;42.75;;;1.30;89.60;;;;;;5055490;28;20036;-75
2020/12/03 06:31:23;;;;;;;111.13;41.47;;;1.30;89.40;;;;;;5053762;28;20178;-71
2020/12/03 06:34:20;;;;;;;85.47;34.40;;;1.30;89.60;;;;;;5056507;28;20037;-72
2020/12/03 06:36:59;;;;;;;81.32;31.02;;;1.30;89.70;;;;;;5055403;28;20037;-73
2020/12/03 06:39:35;;;;;;;85.25;32.30;;;1.30;89.30;;;;;;5056547;28;20112;-73
2020/12/03 06:42:11;;;;;;;87.28;34.90;;;1.20;89.30;;;;;;5055278;28;20037;-73
2020/12/03 06:44:43;;;;;;;88.47;34.97;;;1.20;89.60;;;;;;5054777;28;20064;-72
2020/12/03 06:47:43;;;;;;;78.40;29.73;;;1.30;89.70;;;;;;5056125;28;20069;-72
2020/12/03 06:50:17;;;;;;;70.65;25.63;;;1.30;89.90;;;;;;5049038;28;20032;-78
2020/12/03 06:53:02;;;;;;;99.05;34.65;;;1.30;89.90;;;;;;5049542;28;20040;-74
2020/12/03 06:55:30;;;;;;;190.73;54.42;;;1.30;90.00;;;;;;5053921;28;20124;-76
2020/12/03 06:58:15;;;;;;;141.50;43.78;;;1.40;90.00;;;;;;5053417;28;20031;-77
2020/12/03 07:01:05;;;;;;;177.23;63.53;;;1.40;89.80;;;;;;5049598;28;20139;-75
2020/12/03 07:04:08;;;;;;;160.70;58.22;;;1.40;89.90;;;;;;5046625;28;20025;-76
2020/12/03 07:06:58;;;;;;;97.30;33.35;;;1.40;90.00;;;;;;5035218;28;20361;-75
2020/12/03 07:09:43;;;;;;;105.25;38.03;;;1.50;90.00;;;;;;5042118;28;20044;-74
2020/12/03 07:12:33;;;;;;;112.78;42.35;;;1.50;90.10;;;;;;5058058;28;20033;-75
2020/12/03 07:15:38;;;;;;;80.38;30.90;;;1.60;90.20;;;;;;5053924;28;20032;-74
2020/12/03 07:18:32;;;;;;;99.88;36.50;;;1.60;90.00;;;;;;5050754;28;20389;-73
2020/12/03 07:21:24;;;;;;;130.07;46.33;;;1.60;89.40;;;;;;5040793;28;20060;-72
2020/12/03 07:24:05;;;;;;;124.03;48.00;;;1.60;89.40;;;;;;5035634;28;20610;-73
2020/12/03 07:26:47;;;;;;;110.68;43.65;;;1.60;89.20;;;;;;5048010;28;20029;-72
2020/12/03 07:29:41;;;;;;;82.28;32.50;;;1.50;89.20;;;;;;5040512;28;20479;-73
2020/12/03 07:32:20;;;;;;;87.38;29.73;;;1.50;89.10;;;;;;5052850;28;20064;-69
2020/12/03 07:35:00;;;;;;;88.40;34.67;;;1.50;89.20;;;;;;5043707;28;20115;-73
2020/12/03 07:37:41;;;;;;;87.45;32.25;;;1.40;89.00;;;;;;5035207;28;20582;-75
2020/12/03 07:40:08;;;;;;;80.50;28.42;;;1.50;89.40;;;;;;5033640;28;20033;-72
2020/12/03 07:42:34;;;;;;;112.05;42.35;;;1.50;89.60;;;;;;5038329;28;20067;-74
2020/12/03 07:45:00;;;;;;;94.90;33.70;;;1.50;89.50;;;;;;5040968;28;20045;-75
2020/12/03 07:47:38;;;;;;;87.18;31.25;;;1.50;89.60;;;;;;5055110;28;20032;-75
2020/12/03 07:50:28;;;;;;;94.47;34.92;;;1.60;89.80;;;;;;5046619;28;20034;-72
2020/12/03 07:53:15;;;;;;;91.85;34.60;;;1.70;89.90;;;;;;5038740;28;20032;-74
2020/12/03 07:55:44;;;;;;;99.38;36.63;;;1.70;89.70;;;;;;5042420;28;20127;-74
2020/12/03 07:58:34;;;;;;;86.85;30.42;;;1.70;89.80;;;;;;5032321;28;20029;-73
2020/12/03 08:01:00;;;;;;;68.57;26.73;;;1.70;89.80;;;;;;5033020;28;20049;-74
2020/12/03 08:03:43;;;;;;;93.30;33.35;;;1.70;89.70;;;;;;5033567;28;20478;-75
2020/12/03 08:06:20;;;;;;;88.50;30.88;;;1.80;89.70;;;;;;5032250;28;20498;-75
2020/12/03 08:08:51;;;;;;;80.22;28.02;;;1.80;89.50;;;;;;5032320;28;20022;-75
2020/12/03 08:11:40;;;;;;;101.80;36.58;;;1.80;89.30;;;;;;5033073;28;20030;-74
2020/12/03 08:14:40;;;;;;;105.60;39.55;;;1.80;89.50;;;;;;5048235;28;20033;-74
2020/12/03 08:17:18;;;;;;;106.20;39.30;;;1.90;89.70;;;;;;5051915;28;20029;-75
2020/12/03 08:19:47;;;;;;;101.57;38.47;;;1.90;89.30;;;;;;5049672;28;20084;-73
2020/12/03 08:22:32;;;;;;;108.65;39.25;;;1.90;89.00;;;;;;5052221;28;20032;-72
2020/12/03 08:25:10;;;;;;;94.53;32.65;;;1.90;88.90;;;;;;5050524;28;20048;-73
2020/12/03 08:27:36;;;;;;;69.07;26.08;;;1.80;88.70;;;;;;5054059;28;20029;-73
2020/12/03 08:30:04;;;;;;;124.68;45.03;;;1.80;88.80;;;;;;5054231;28;20025;-73
2020/12/03 08:33:06;;;;;;;178.20;55.47;;;1.80;88.70;;;;;;5057322;28;20032;-74
2020/12/03 08:35:32;;;;;;;159.73;58.33;;;1.80;88.80;;;;;;5053114;28;20123;-73
2020/12/03 08:38:01;;;;;;;93.80;37.60;;;1.90;89.00;;;;;;5057019;28;20201;-72
2020/12/03 08:40:35;;;;;;;96.13;36.83;;;1.90;89.00;;;;;;5061941;28;20061;-72
2020/12/03 08:43:03;;;;;;;118.28;48.92;;;1.90;88.90;;;;;;5063201;28;20104;-73
2020/12/03 08:45:33;;;;;;;104.00;45.67;;;2.00;89.20;;;;;;5055766;28;20041;-72
2020/12/03 08:48:01;;;;;;;91.82;35.28;;;2.00;89.40;;;;;;5055511;28;20021;-74
2020/12/03 08:50:26;;;;;;;109.93;43.92;;;2.10;89.20;;;;;;5051993;28;20021;-74
2020/12/03 08:52:54;;;;;;;98.53;38.95;;;2.20;89.40;;;;;;5050159;28;20459;-73
2020/12/03 08:55:20;;;;;;;83.32;32.75;;;2.30;89.60;;;;;;5051581;28;20039;-73
2020/12/03 08:57:46;;;;;;;70.85;26.33;;;2.40;89.70;;;;;;5049861;28;20390;-73
2020/12/03 09:00:17;;;;;;;59.35;22.83;;;2.60;90.10;;;;;;5052667;28;20017;-72
2020/12/03 09:02:44;;;;;;;66.75;27.08;;;2.80;89.20;;;;;;5052231;28;20128;-73
2020/12/03 09:05:13;;;;;;;66.25;27.23;;;2.80;88.40;;;;;;5051984;28;20037;-73
2020/12/03 09:07:47;;;;;;;66.25;24.83;;;2.70;87.90;;;;;;5053388;28;20033;-73
2020/12/03 09:10:13;;;;;;;48.63;20.25;;;2.60;87.30;;;;;;5053485;28;20383;-73
2020/12/03 09:12:46;;;;;;;66.60;24.90;;;2.70;87.40;;;;;;5053265;28;20032;-73
2020/12/03 09:15:12;;;;;;;58.15;23.10;;;2.70;87.40;;;;;;5052293;28;20033;-73
2020/12/03 09:17:44;;;;;;;56.33;24.25;;;2.70;87.40;;;;;;5053604;28;20039;-73
2020/12/03 09:20:12;;;;;;;57.42;22.90;;;2.60;87.10;;;;;;5053356;28;20032;-73
2020/12/03 09:22:39;;;;;;;71.90;29.10;;;2.60;86.80;;;;;;5052218;28;20029;-72
2020/12/03 09:25:07;;;;;;;68.40;27.35;;;2.50;86.50;;;;;;5053422;28;20032;-73
2020/12/03 09:27:42;;;;;;;61.60;25.02;;;2.40;86.80;;;;;;5053363;28;20037;-73
2020/12/03 09:30:21;;;;;;;57.42;25.52;;;2.40;86.60;;;;;;5053431;28;20090;-73
2020/12/03 09:32:53;;;;;;;51.22;22.15;;;2.40;86.80;;;;;;5053204;28;20475;-73
2020/12/03 09:35:19;;;;;;;75.93;30.15;;;2.30;86.80;;;;;;5052288;28;20071;-73
2020/12/03 09:37:45;;;;;;;76.25;29.65;;;2.30;87.00;;;;;;5052400;28;20029;-73
2020/12/03 09:40:13;;;;;;;70.45;26.90;;;2.30;87.40;;;;;;5051970;28;20025;-73
2020/12/03 09:42:48;;;;;;;65.32;25.80;;;2.40;87.30;;;;;;5053483;28;20048;-74
2020/12/03 09:45:19;;;;;;;58.63;25.45;;;2.40;87.30;;;;;;5053247;28;20037;-73
2020/12/03 09:47:46;;;;;;;61.17;24.25;;;2.40;87.10;;;;;;5052417;28;20502;-74
2020/12/03 09:50:13;;;;;;;60.85;25.48;;;2.40;86.80;;;;;;5051983;28;20036;-73
2020/12/03 09:52:42;;;;;;;88.00;32.05;;;2.30;86.30;;;;;;5052184;28;20120;-73
2020/12/03 09:55:12;;;;;;;75.70;28.92;;;2.30;86.50;;;;;;5056267;28;20486;-73
2020/12/03 09:57:38;;;;;;;71.22;27.58;;;2.20;86.50;;;;;;5055705;28;20124;-74
2020/12/03 10:00:08;;;;;;;70.25;26.98;;;2.20;86.50;;;;;;5056257;28;20105;-74
2020/12/03 10:03:05;;;;;;;64.50;25.42;;;2.10;86.20;;;;;;5055354;28;20055;-74
2020/12/03 10:05:53;;;;;;;;;;;2.10;86.30;;;;;;5057053;28;20059;-73
2020/12/03 10:08:33;;;;;;;76.10;29.20;;;2.00;85.90;;;;;;5056004;28;19905;-74
2020/12/03 10:11:36;;;;;;;65.68;24.42;;;1.90;86.30;;;;;;5057001;28;20025;-73
2020/12/03 10:14:32;;;;;;;75.47;26.08;;;1.80;86.50;;;;;;5055365;28;20066;-73
2020/12/03 10:17:06;;;;;;;72.28;27.88;;;1.80;86.80;;;;;;5056848;28;20074;-74
2020/12/03 10:19:38;;;;;;;71.78;28.73;;;1.70;87.20;;;;;;5055469;28;20033;-73
2020/12/03 10:22:05;;;;;;;76.43;28.33;;;1.80;87.30;;;;;;5055396;28;20522;-74
2020/12/03 10:24:44;;;;;;;63.60;25.00;;;1.80;87.30;;;;;;5056338;28;20037;-73
2020/12/03 10:27:25;;;;;;;75.63;26.65;;;1.90;87.70;;;;;;5055447;28;20025;-73
2020/12/03 10:30:00;;;;;;;84.75;27.40;;;1.90;87.60;;;;;;5055205;28;20459;-73
2020/12/03 10:32:27;;;;;;;87.05;30.48;;;1.90;87.30;;;;;;5056239;28;20067;-73
2020/12/03 10:34:54;;;;;;;85.70;27.60;;;2.00;87.20;;;;;;5056188;28;20029;-74
2020/12/03 10:37:25;;;;;;;85.65;29.90;;;2.00;87.50;;;;;;5056288;28;20071;-75
2020/12/03 10:40:09;;;;;;;84.30;29.58;;;2.00;87.40;;;;;;5056169;28;20121;-73
2020/12/03 10:42:41;;;;;;;98.45;34.50;;;2.00;87.40;;;;;;5054703;28;20036;-73
2020/12/03 10:45:16;;;;;;;106.15;37.33;;;2.00;87.70;;;;;;5056129;28;20033;-73
2020/12/03 10:48:11;;;;;;;110.00;36.33;;;2.10;87.90;;;;;;5054743;28;20033;-74
2020/12/03 10:51:04;;;;;;;81.07;28.88;;;2.10;88.00;;;;;;5056307;28;20309;-73
2020/12/03 10:53:31;;;;;;;86.57;28.02;;;2.20;87.90;;;;;;5055330;28;20041;-74
2020/12/03 10:56:02;;;;;;;65.45;24.65;;;2.20;87.30;;;;;;5055727;28;20082;-74
2020/12/03 11:01:28;;;;;;;89.35;31.60;;;2.20;87.10;;;;;;5055699;28;20102;-74
2020/12/03 11:03:58;;;;;;;76.25;29.25;;;2.10;87.00;;;;;;5055772;28;20025;-73
2020/12/03 11:06:29;;;;;;;92.72;33.55;;;2.10;86.60;;;;;;5054686;28;20033;-74
2020/12/03 11:08:56;;;;;;;88.60;31.35;;;2.10;86.70;;;;;;5054280;28;20107;-72
2020/12/03 11:11:23;;;;;;;84.78;31.67;;;2.00;87.00;;;;;;5054144;28;20123;-73
2020/12/03 11:13:50;;;;;;;81.82;28.20;;;2.10;87.20;;;;;;5055783;28;20032;-74
2020/12/03 11:16:26;;;;;;;77.32;26.00;;;2.10;86.90;;;;;;5055496;28;20029;-73
2020/12/03 11:18:57;;;;;;;65.75;25.20;;;2.00;86.70;;;;;;5055502;28;20368;-74
2020/12/03 11:21:26;;;;;;;77.25;28.60;;;2.00;86.50;;;;;;5054244;28;20028;-73
2020/12/03 11:24:11;;;;;;;81.38;29.02;;;1.90;86.70;;;;;;5055805;28;20025;-75
2020/12/03 11:26:44;;;;;;;79.40;27.50;;;1.90;86.90;;;;;;5053995;28;20114;-74
2020/12/03 11:29:14;;;;;;;69.75;27.83;;;1.90;86.80;;;;;;5054008;28;20025;-74
2020/12/03 11:31:41;;;;;;;74.72;27.40;;;1.90;87.00;;;;;;5055224;28;20375;-74
2020/12/03 11:34:07;;;;;;;67.43;25.23;;;1.80;86.80;;;;;;5053919;28;20033;-74
2020/12/03 11:36:45;;;;;;;79.68;28.95;;;1.80;86.90;;;;;;5055124;28;20044;-74
2020/12/03 11:39:11;;;;;;;88.40;31.90;;;1.80;87.00;;;;;;5055047;28;20020;-73
2020/12/03 11:49:31;;;;;;;95.75;36.05;;;1.80;87.50;;;;;;5054838;28;20025;-74
2020/12/03 11:52:15;;;;;;;91.63;33.42;;;1.90;87.80;;;;;;5053584;28;20049;-74
2020/12/03 11:54:45;;;;;;;91.70;33.08;;;1.90;87.50;;;;;;5055133;28;20027;-74
2020/12/03 11:57:14;;;;;;;69.38;28.73;;;1.90;87.30;;;;;;5054759;28;20024;-74
2020/12/03 11:59:40;;;;;;;125.65;47.40;;;1.90;87.30;;;;;;5054860;28;20025;-74
2020/12/03 12:02:09;;;;;;;74.28;28.88;;;1.90;87.40;;;;;;5055084;28;20140;-74
2020/12/03 12:07:50;;;;;;;65.88;25.23;;;1.90;87.50;;;;;;5054909;28;20044;-74
2020/12/03 12:12:42;;;;;;;94.72;34.40;;;1.90;87.10;;;;;;5054401;28;20032;-74
2020/12/03 12:15:07;;;;;;;71.38;25.90;;;1.90;87.10;;;;;;5054338;28;20029;-74
2020/12/03 12:17:36;;;;;;;91.03;33.28;;;1.90;87.30;;;;;;5054211;28;20025;-73
2020/12/03 12:20:06;;;;;;;78.40;29.67;;;1.90;87.20;;;;;;5054408;28;20032;-74
2020/12/03 12:22:32;;;;;;;91.55;33.63;;;1.90;87.30;;;;;;5053026;28;20025;-73
2020/12/03 12:24:58;;;;;;;72.28;29.15;;;1.90;87.20;;;;;;5054157;28;20041;-74
2020/12/03 12:27:24;;;;;;;55.20;23.85;;;1.90;87.10;;;;;;5054053;28;20064;-74
2020/12/03 12:29:50;;;;;;;57.88;22.80;;;1.90;87.00;;;;;;5052855;28;20029;-74
2020/12/03 12:32:15;;;;;;;72.50;27.90;;;1.90;86.80;;;;;;5052747;28;20025;-74
2020/12/03 12:34:43;;;;;;;64.03;23.52;;;1.80;86.70;;;;;;5052732;28;20120;-74
2020/12/03 12:37:09;;;;;;;91.80;29.67;;;1.80;86.90;;;;;;5053935;28;20021;-74
2020/12/03 12:39:35;;;;;;;90.65;33.05;;;1.80;87.10;;;;;;5052599;28;20052;-74
2020/12/03 12:42:04;;;;;;;107.63;40.38;;;1.90;87.30;;;;;;5053810;28;20071;-74
2020/12/03 12:44:30;;;;;;;107.75;42.97;;;1.90;87.30;;;;;;5052476;28;20040;-74
2020/12/03 12:47:01;;;;;;;141.40;54.38;;;1.90;87.30;;;;;;5053770;28;20056;-74
2020/12/03 12:49:27;;;;;;;130.43;48.25;;;1.90;87.50;;;;;;5052723;28;20482;-74
2020/12/03 12:51:55;;;;;;;115.32;43.63;;;1.90;87.50;;;;;;5054194;28;20025;-74
2020/12/03 12:54:23;;;;;;;106.70;38.22;;;2.00;87.70;;;;;;5053692;28;20024;-74
2020/12/03 12:56:49;;;;;;;95.80;36.15;;;2.00;87.50;;;;;;5053677;28;20107;-74
2020/12/03 12:59:15;;;;;;;82.53;32.90;;;1.90;87.40;;;;;;5052395;28;20439;-73
2020/12/03 13:01:45;;;;;;;88.95;33.33;;;1.90;87.20;;;;;;5052486;28;20454;-73
2020/12/03 13:04:12;;;;;;;77.65;29.73;;;2.00;87.30;;;;;;5052302;28;20097;-73
2020/12/03 13:06:39;;;;;;;86.43;30.27;;;1.90;87.00;;;;;;5053377;28;20484;-73
2020/12/03 13:09:05;;;;;;;86.15;32.38;;;1.90;87.10;;;;;;5053594;28;20025;-74
2020/12/03 13:11:31;;;;;;;87.18;33.42;;;1.90;87.10;;;;;;5053768;28;20052;-74
2020/12/03 13:13:57;;;;;;;91.50;32.35;;;1.90;87.00;;;;;;5053575;28;20489;-73
2020/12/03 13:16:23;;;;;;;89.43;34.50;;;1.90;87.30;;;;;;5053357;28;20029;-73
2020/12/03 13:18:49;;;;;;;92.53;31.85;;;1.90;87.40;;;;;;5053257;28;20025;-74